sensor_id;sensor_type;location;lat;lon;timestamp;P1;durP1;ratioP1;P2;durP2;ratioP2
52041;SDS011;38052;45.944;13.624;2024-02-16T00:01:23;34.55;;;24.92;;
52041;SDS011;38052;45.944;13.624;2024-02-16T00:03:50;37.35;;;26.70;;
52041;SDS011;38052;45.944;13.624;2024-02-16T00:06:16;37.92;;;25.05;;
52041;SDS011;38052;45.944;13.624;2024-02-16T00:08:43;27.65;;;21.70;;
52041;SDS011;38052;45.944;13.624;2024-02-16T00:11:09;35.33;;;22.65;;
52041;SDS011;38052;45.944;13.624;2024-02-16T00:13:35;29.35;;;20.77;;
52041;SDS011;38052;45.944;13.624;2024-02-16T00:16:02;31.35;;;21.95;;
52041;SDS011;38052;45.944;13.624;2024-02-16T00:18:29;33.72;;;21.20;;
52041;SDS011;38052;45.944;13.624;2024-02-16T00:20:55;29.20;;;19.88;;
52041;SDS011;38052;45.944;13.624;2024-02-16T00:23:22;29.52;;;19.15;;
52041;SDS011;38052;45.944;13.624;2024-02-16T00:25:50;25.85;;;18.02;;
52041;SDS011;38052;45.944;13.624;2024-02-16T00:28:16;22.88;;;16.55;;
52041;SDS011;38052;45.944;13.624;2024-02-16T00:30:42;28.48;;;16.88;;
52041;SDS011;38052;45.944;13.624;2024-02-16T00:33:08;25.40;;;17.45;;
52041;SDS011;38052;45.944;13.624;2024-02-16T00:35:34;22.77;;;14.32;;
52041;SDS011;38052;45.944;13.624;2024-02-16T00:38:02;18.23;;;13.00;;
52041;SDS011;38052;45.944;13.624;2024-02-16T00:40:28;18.13;;;12.25;;
52041;SDS011;38052;45.944;13.624;2024-02-16T00:42:55;14.90;;;10.88;;
52041;SDS011;38052;45.944;13.624;2024-02-16T00:45:21;17.77;;;10.93;;
52041;SDS011;38052;45.944;13.624;2024-02-16T00:47:48;12.85;;;9.18;;
52041;SDS011;38052;45.944;13.624;2024-02-16T00:50:14;11.25;;;8.15;;
52041;SDS011;38052;45.944;13.624;2024-02-16T00:52:41;11.65;;;8.27;;
52041;SDS011;38052;45.944;13.624;2024-02-16T00:55:09;14.75;;;7.95;;
52041;SDS011;38052;45.944;13.624;2024-02-16T00:57:36;13.85;;;9.45;;
52041;SDS011;38052;45.944;13.624;2024-02-16T01:00:03;12.85;;;8.38;;
52041;SDS011;38052;45.944;13.624;2024-02-16T01:02:30;16.35;;;10.32;;
52041;SDS011;38052;45.944;13.624;2024-02-16T01:04:56;22.00;;;15.38;;
52041;SDS011;38052;45.944;13.624;2024-02-16T01:07:27;24.92;;;17.27;;
52041;SDS011;38052;45.944;13.624;2024-02-16T01:09:53;15.57;;;12.40;;
52041;SDS011;38052;45.944;13.624;2024-02-16T01:12:21;15.68;;;11.13;;
52041;SDS011;38052;45.944;13.624;2024-02-16T01:14:47;22.17;;;14.68;;
52041;SDS011;38052;45.944;13.624;2024-02-16T01:17:13;26.25;;;17.05;;
52041;SDS011;38052;45.944;13.624;2024-02-16T01:19:40;31.25;;;23.30;;
52041;SDS011;38052;45.944;13.624;2024-02-16T01:22:07;41.28;;;26.42;;
52041;SDS011;38052;45.944;13.624;2024-02-16T01:24:33;39.67;;;28.52;;
52041;SDS011;38052;45.944;13.624;2024-02-16T01:27:00;44.90;;;28.02;;
52041;SDS011;38052;45.944;13.624;2024-02-16T01:29:26;43.70;;;28.38;;
52041;SDS011;38052;45.944;13.624;2024-02-16T01:31:53;38.38;;;28.40;;
52041;SDS011;38052;45.944;13.624;2024-02-16T01:34:20;44.63;;;31.45;;
52041;SDS011;38052;45.944;13.624;2024-02-16T01:36:47;43.97;;;30.55;;
52041;SDS011;38052;45.944;13.624;2024-02-16T01:39:13;39.90;;;29.00;;
52041;SDS011;38052;45.944;13.624;2024-02-16T01:41:40;37.85;;;28.90;;
52041;SDS011;38052;45.944;13.624;2024-02-16T01:44:06;38.17;;;27.55;;
52041;SDS011;38052;45.944;13.624;2024-02-16T01:46:33;39.10;;;28.13;;
52041;SDS011;38052;45.944;13.624;2024-02-16T01:49:00;35.95;;;25.98;;
52041;SDS011;38052;45.944;13.624;2024-02-16T01:51:27;34.05;;;25.70;;
52041;SDS011;38052;45.944;13.624;2024-02-16T01:53:53;37.80;;;26.30;;
52041;SDS011;38052;45.944;13.624;2024-02-16T01:56:20;36.03;;;26.65;;
52041;SDS011;38052;45.944;13.624;2024-02-16T01:58:47;32.67;;;25.13;;
52041;SDS011;38052;45.944;13.624;2024-02-16T02:01:13;32.38;;;24.80;;
52041;SDS011;38052;45.944;13.624;2024-02-16T02:03:40;34.35;;;27.35;;
52041;SDS011;38052;45.944;13.624;2024-02-16T02:06:06;36.33;;;26.02;;
52041;SDS011;38052;45.944;13.624;2024-02-16T02:08:32;32.63;;;22.30;;
52041;SDS011;38052;45.944;13.624;2024-02-16T02:10:59;28.33;;;21.50;;
52041;SDS011;38052;45.944;13.624;2024-02-16T02:13:25;28.13;;;21.30;;
52041;SDS011;38052;45.944;13.624;2024-02-16T02:15:53;27.27;;;20.05;;
52041;SDS011;38052;45.944;13.624;2024-02-16T02:18:20;28.65;;;21.08;;
52041;SDS011;38052;45.944;13.624;2024-02-16T02:20:46;27.83;;;20.40;;
52041;SDS011;38052;45.944;13.624;2024-02-16T02:23:12;29.25;;;20.98;;
52041;SDS011;38052;45.944;13.624;2024-02-16T02:25:38;26.08;;;19.45;;
52041;SDS011;38052;45.944;13.624;2024-02-16T02:28:05;23.98;;;18.52;;
52041;SDS011;38052;45.944;13.624;2024-02-16T02:30:31;20.55;;;15.82;;
52041;SDS011;38052;45.944;13.624;2024-02-16T02:32:58;24.23;;;17.85;;
52041;SDS011;38052;45.944;13.624;2024-02-16T02:35:24;25.58;;;18.05;;
52041;SDS011;38052;45.944;13.624;2024-02-16T02:37:51;21.83;;;15.82;;
52041;SDS011;38052;45.944;13.624;2024-02-16T02:40:17;25.02;;;17.48;;
52041;SDS011;38052;45.944;13.624;2024-02-16T02:42:43;26.45;;;19.42;;
52041;SDS011;38052;45.944;13.624;2024-02-16T02:45:09;27.00;;;18.65;;
52041;SDS011;38052;45.944;13.624;2024-02-16T02:47:36;27.55;;;20.75;;
52041;SDS011;38052;45.944;13.624;2024-02-16T02:50:03;24.08;;;17.60;;
52041;SDS011;38052;45.944;13.624;2024-02-16T02:52:30;25.92;;;18.27;;
52041;SDS011;38052;45.944;13.624;2024-02-16T02:54:56;22.55;;;16.45;;
52041;SDS011;38052;45.944;13.624;2024-02-16T02:57:23;21.90;;;15.20;;
52041;SDS011;38052;45.944;13.624;2024-02-16T02:59:49;17.80;;;12.18;;
52041;SDS011;38052;45.944;13.624;2024-02-16T03:02:16;18.65;;;11.18;;
52041;SDS011;38052;45.944;13.624;2024-02-16T03:04:42;11.27;;;8.93;;
52041;SDS011;38052;45.944;13.624;2024-02-16T03:07:09;14.75;;;10.73;;
52041;SDS011;38052;45.944;13.624;2024-02-16T03:09:35;16.73;;;11.57;;
52041;SDS011;38052;45.944;13.624;2024-02-16T03:12:02;15.98;;;11.07;;
52041;SDS011;38052;45.944;13.624;2024-02-16T03:14:28;25.08;;;12.25;;
52041;SDS011;38052;45.944;13.624;2024-02-16T03:16:55;16.83;;;10.45;;
52041;SDS011;38052;45.944;13.624;2024-02-16T03:19:21;16.17;;;11.73;;
52041;SDS011;38052;45.944;13.624;2024-02-16T03:21:47;15.85;;;9.50;;
52041;SDS011;38052;45.944;13.624;2024-02-16T03:24:14;15.93;;;10.35;;
52041;SDS011;38052;45.944;13.624;2024-02-16T03:26:41;11.55;;;8.70;;
52041;SDS011;38052;45.944;13.624;2024-02-16T03:29:07;11.93;;;8.05;;
52041;SDS011;38052;45.944;13.624;2024-02-16T03:31:34;14.40;;;7.90;;
52041;SDS011;38052;45.944;13.624;2024-02-16T03:34:00;13.82;;;8.38;;
52041;SDS011;38052;45.944;13.624;2024-02-16T03:36:28;9.57;;;6.53;;
52041;SDS011;38052;45.944;13.624;2024-02-16T03:38:55;13.07;;;8.10;;
52041;SDS011;38052;45.944;13.624;2024-02-16T03:41:22;11.82;;;8.13;;
52041;SDS011;38052;45.944;13.624;2024-02-16T03:43:49;12.57;;;8.13;;
52041;SDS011;38052;45.944;13.624;2024-02-16T03:46:16;11.35;;;7.90;;
52041;SDS011;38052;45.944;13.624;2024-02-16T03:48:42;13.00;;;8.27;;
52041;SDS011;38052;45.944;13.624;2024-02-16T03:51:09;13.80;;;8.43;;
52041;SDS011;38052;45.944;13.624;2024-02-16T03:53:36;11.25;;;8.50;;
52041;SDS011;38052;45.944;13.624;2024-02-16T03:56:02;15.20;;;9.02;;
52041;SDS011;38052;45.944;13.624;2024-02-16T03:58:31;13.15;;;9.30;;
52041;SDS011;38052;45.944;13.624;2024-02-16T04:00:57;16.38;;;11.07;;
52041;SDS011;38052;45.944;13.624;2024-02-16T04:03:24;16.13;;;10.90;;
52041;SDS011;38052;45.944;13.624;2024-02-16T04:05:50;14.07;;;10.55;;
52041;SDS011;38052;45.944;13.624;2024-02-16T04:08:18;19.80;;;14.27;;
52041;SDS011;38052;45.944;13.624;2024-02-16T04:10:47;17.42;;;12.52;;
52041;SDS011;38052;45.944;13.624;2024-02-16T04:13:13;15.65;;;11.63;;
52041;SDS011;38052;45.944;13.624;2024-02-16T04:15:40;18.52;;;13.82;;
52041;SDS011;38052;45.944;13.624;2024-02-16T04:18:06;18.13;;;12.30;;
52041;SDS011;38052;45.944;13.624;2024-02-16T04:20:33;16.33;;;12.40;;
52041;SDS011;38052;45.944;13.624;2024-02-16T04:23:00;13.18;;;10.85;;
52041;SDS011;38052;45.944;13.624;2024-02-16T04:25:26;17.75;;;9.98;;
52041;SDS011;38052;45.944;13.624;2024-02-16T04:27:53;14.38;;;8.05;;
52041;SDS011;38052;45.944;13.624;2024-02-16T04:30:19;12.23;;;7.38;;
52041;SDS011;38052;45.944;13.624;2024-02-16T04:32:46;14.18;;;7.30;;
52041;SDS011;38052;45.944;13.624;2024-02-16T04:35:13;11.77;;;5.95;;
52041;SDS011;38052;45.944;13.624;2024-02-16T04:37:40;11.68;;;7.40;;
52041;SDS011;38052;45.944;13.624;2024-02-16T04:40:07;10.23;;;6.78;;
52041;SDS011;38052;45.944;13.624;2024-02-16T04:42:34;10.93;;;7.13;;
52041;SDS011;38052;45.944;13.624;2024-02-16T04:45:00;11.35;;;7.03;;
52041;SDS011;38052;45.944;13.624;2024-02-16T04:47:28;10.32;;;7.45;;
52041;SDS011;38052;45.944;13.624;2024-02-16T04:49:54;14.70;;;8.82;;
52041;SDS011;38052;45.944;13.624;2024-02-16T04:52:21;14.00;;;10.43;;
52041;SDS011;38052;45.944;13.624;2024-02-16T04:54:47;21.63;;;14.52;;
52041;SDS011;38052;45.944;13.624;2024-02-16T04:57:14;26.13;;;14.85;;
52041;SDS011;38052;45.944;13.624;2024-02-16T04:59:40;14.02;;;11.05;;
52041;SDS011;38052;45.944;13.624;2024-02-16T05:02:07;15.10;;;9.45;;
52041;SDS011;38052;45.944;13.624;2024-02-16T05:04:33;13.73;;;8.23;;
52041;SDS011;38052;45.944;13.624;2024-02-16T05:07:00;12.45;;;7.68;;
52041;SDS011;38052;45.944;13.624;2024-02-16T05:09:27;11.55;;;7.13;;
52041;SDS011;38052;45.944;13.624;2024-02-16T05:11:53;12.93;;;8.05;;
52041;SDS011;38052;45.944;13.624;2024-02-16T05:14:20;13.65;;;8.40;;
52041;SDS011;38052;45.944;13.624;2024-02-16T05:16:47;11.40;;;8.13;;
52041;SDS011;38052;45.944;13.624;2024-02-16T05:19:13;11.15;;;7.97;;
52041;SDS011;38052;45.944;13.624;2024-02-16T05:21:39;14.98;;;9.70;;
52041;SDS011;38052;45.944;13.624;2024-02-16T05:24:06;20.50;;;13.88;;
52041;SDS011;38052;45.944;13.624;2024-02-16T05:26:32;14.52;;;10.82;;
52041;SDS011;38052;45.944;13.624;2024-02-16T05:28:59;15.45;;;10.88;;
52041;SDS011;38052;45.944;13.624;2024-02-16T05:31:25;16.92;;;10.13;;
52041;SDS011;38052;45.944;13.624;2024-02-16T05:33:52;13.05;;;10.32;;
52041;SDS011;38052;45.944;13.624;2024-02-16T05:36:19;17.13;;;11.48;;
52041;SDS011;38052;45.944;13.624;2024-02-16T05:38:52;18.33;;;12.30;;
52041;SDS011;38052;45.944;13.624;2024-02-16T05:41:21;16.95;;;11.98;;
52041;SDS011;38052;45.944;13.624;2024-02-16T05:43:47;18.33;;;12.73;;
52041;SDS011;38052;45.944;13.624;2024-02-16T05:46:14;18.30;;;13.20;;
52041;SDS011;38052;45.944;13.624;2024-02-16T05:48:41;19.73;;;12.32;;
52041;SDS011;38052;45.944;13.624;2024-02-16T05:51:08;18.63;;;11.32;;
52041;SDS011;38052;45.944;13.624;2024-02-16T05:53:37;12.80;;;8.63;;
52041;SDS011;38052;45.944;13.624;2024-02-16T05:56:05;12.80;;;9.63;;
52041;SDS011;38052;45.944;13.624;2024-02-16T05:58:31;13.95;;;9.32;;
52041;SDS011;38052;45.944;13.624;2024-02-16T06:00:58;13.13;;;9.57;;
52041;SDS011;38052;45.944;13.624;2024-02-16T06:03:25;16.98;;;10.25;;
52041;SDS011;38052;45.944;13.624;2024-02-16T06:05:52;17.10;;;9.50;;
52041;SDS011;38052;45.944;13.624;2024-02-16T06:08:18;15.23;;;10.18;;
52041;SDS011;38052;45.944;13.624;2024-02-16T06:10:45;14.70;;;10.18;;
52041;SDS011;38052;45.944;13.624;2024-02-16T06:13:18;14.93;;;9.27;;
52041;SDS011;38052;45.944;13.624;2024-02-16T06:15:45;15.43;;;9.07;;
52041;SDS011;38052;45.944;13.624;2024-02-16T06:18:12;14.63;;;9.48;;
52041;SDS011;38052;45.944;13.624;2024-02-16T06:20:38;12.82;;;9.15;;
52041;SDS011;38052;45.944;13.624;2024-02-16T06:23:05;12.23;;;8.45;;
52041;SDS011;38052;45.944;13.624;2024-02-16T06:25:31;13.20;;;9.00;;
52041;SDS011;38052;45.944;13.624;2024-02-16T06:27:58;14.73;;;8.85;;
52041;SDS011;38052;45.944;13.624;2024-02-16T06:30:25;11.82;;;8.60;;
52041;SDS011;38052;45.944;13.624;2024-02-16T06:32:51;12.18;;;8.07;;
52041;SDS011;38052;45.944;13.624;2024-02-16T06:35:19;10.63;;;6.75;;
52041;SDS011;38052;45.944;13.624;2024-02-16T06:37:46;14.70;;;6.70;;
52041;SDS011;38052;45.944;13.624;2024-02-16T06:40:13;10.75;;;5.75;;
52041;SDS011;38052;45.944;13.624;2024-02-16T06:42:39;7.85;;;4.85;;
52041;SDS011;38052;45.944;13.624;2024-02-16T06:45:05;8.30;;;5.15;;
52041;SDS011;38052;45.944;13.624;2024-02-16T06:47:33;14.35;;;4.40;;
52041;SDS011;38052;45.944;13.624;2024-02-16T06:50:00;8.18;;;3.67;;
52041;SDS011;38052;45.944;13.624;2024-02-16T06:52:27;7.93;;;3.40;;
52041;SDS011;38052;45.944;13.624;2024-02-16T06:54:53;7.30;;;3.22;;
52041;SDS011;38052;45.944;13.624;2024-02-16T06:57:20;5.80;;;2.95;;
52041;SDS011;38052;45.944;13.624;2024-02-16T06:59:46;8.52;;;3.35;;
52041;SDS011;38052;45.944;13.624;2024-02-16T07:02:13;12.07;;;4.00;;
52041;SDS011;38052;45.944;13.624;2024-02-16T07:04:40;6.90;;;3.38;;
52041;SDS011;38052;45.944;13.624;2024-02-16T07:07:06;11.40;;;3.15;;
52041;SDS011;38052;45.944;13.624;2024-02-16T07:09:33;5.97;;;3.50;;
52041;SDS011;38052;45.944;13.624;2024-02-16T07:12:01;7.05;;;3.72;;
52041;SDS011;38052;45.944;13.624;2024-02-16T07:14:27;8.65;;;3.10;;
52041;SDS011;38052;45.944;13.624;2024-02-16T07:16:54;7.85;;;3.17;;
52041;SDS011;38052;45.944;13.624;2024-02-16T07:19:20;12.15;;;3.40;;
52041;SDS011;38052;45.944;13.624;2024-02-16T07:21:47;9.77;;;3.55;;
52041;SDS011;38052;45.944;13.624;2024-02-16T07:24:15;6.47;;;3.47;;
52041;SDS011;38052;45.944;13.624;2024-02-16T07:26:41;5.60;;;3.35;;
52041;SDS011;38052;45.944;13.624;2024-02-16T07:29:07;9.75;;;4.15;;
52041;SDS011;38052;45.944;13.624;2024-02-16T07:31:34;6.60;;;3.67;;
52041;SDS011;38052;45.944;13.624;2024-02-16T07:34:02;6.18;;;3.25;;
52041;SDS011;38052;45.944;13.624;2024-02-16T07:36:29;8.30;;;3.42;;
52041;SDS011;38052;45.944;13.624;2024-02-16T07:38:55;6.47;;;2.97;;
52041;SDS011;38052;45.944;13.624;2024-02-16T07:41:21;7.63;;;3.45;;
52041;SDS011;38052;45.944;13.624;2024-02-16T07:43:48;5.05;;;3.53;;
52041;SDS011;38052;45.944;13.624;2024-02-16T07:46:14;6.22;;;3.35;;
52041;SDS011;38052;45.944;13.624;2024-02-16T07:48:41;5.35;;;3.25;;
52041;SDS011;38052;45.944;13.624;2024-02-16T07:51:08;5.45;;;2.95;;
52041;SDS011;38052;45.944;13.624;2024-02-16T07:53:34;5.25;;;2.58;;
52041;SDS011;38052;45.944;13.624;2024-02-16T07:56:01;8.07;;;2.60;;
52041;SDS011;38052;45.944;13.624;2024-02-16T07:58:27;6.63;;;3.10;;
52041;SDS011;38052;45.944;13.624;2024-02-16T08:00:54;6.63;;;2.85;;
52041;SDS011;38052;45.944;13.624;2024-02-16T08:03:20;7.07;;;2.85;;
52041;SDS011;38052;45.944;13.624;2024-02-16T08:05:46;4.90;;;2.85;;
52041;SDS011;38052;45.944;13.624;2024-02-16T08:08:13;7.25;;;3.78;;
52041;SDS011;38052;45.944;13.624;2024-02-16T08:10:40;8.95;;;4.63;;
52041;SDS011;38052;45.944;13.624;2024-02-16T08:13:06;13.60;;;4.20;;
52041;SDS011;38052;45.944;13.624;2024-02-16T08:15:32;13.82;;;7.00;;
52041;SDS011;38052;45.944;13.624;2024-02-16T08:17:58;12.25;;;6.95;;
52041;SDS011;38052;45.944;13.624;2024-02-16T08:20:24;11.02;;;6.20;;
52041;SDS011;38052;45.944;13.624;2024-02-16T08:22:50;22.05;;;13.02;;
52041;SDS011;38052;45.944;13.624;2024-02-16T08:25:17;20.83;;;13.27;;
52041;SDS011;38052;45.944;13.624;2024-02-16T08:27:43;20.27;;;13.45;;
52041;SDS011;38052;45.944;13.624;2024-02-16T08:30:10;22.90;;;14.13;;
52041;SDS011;38052;45.944;13.624;2024-02-16T08:32:36;19.08;;;13.00;;
52041;SDS011;38052;45.944;13.624;2024-02-16T08:35:03;23.05;;;13.50;;
52041;SDS011;38052;45.944;13.624;2024-02-16T08:37:29;19.67;;;13.85;;
52041;SDS011;38052;45.944;13.624;2024-02-16T08:39:55;26.42;;;13.77;;
52041;SDS011;38052;45.944;13.624;2024-02-16T08:42:21;18.65;;;12.45;;
52041;SDS011;38052;45.944;13.624;2024-02-16T08:44:48;19.95;;;12.65;;
52041;SDS011;38052;45.944;13.624;2024-02-16T08:47:15;15.32;;;11.32;;
52041;SDS011;38052;45.944;13.624;2024-02-16T08:49:42;14.02;;;10.57;;
52041;SDS011;38052;45.944;13.624;2024-02-16T08:52:08;19.67;;;9.73;;
52041;SDS011;38052;45.944;13.624;2024-02-16T08:54:34;13.90;;;9.70;;
52041;SDS011;38052;45.944;13.624;2024-02-16T08:57:01;15.40;;;9.02;;
52041;SDS011;38052;45.944;13.624;2024-02-16T08:59:28;12.70;;;7.93;;
52041;SDS011;38052;45.944;13.624;2024-02-16T09:01:55;12.30;;;6.78;;
52041;SDS011;38052;45.944;13.624;2024-02-16T09:04:21;12.00;;;6.93;;
52041;SDS011;38052;45.944;13.624;2024-02-16T09:06:47;10.88;;;6.13;;
52041;SDS011;38052;45.944;13.624;2024-02-16T09:09:15;12.18;;;6.38;;
52041;SDS011;38052;45.944;13.624;2024-02-16T09:11:42;8.48;;;5.68;;
52041;SDS011;38052;45.944;13.624;2024-02-16T09:14:08;8.90;;;4.50;;
52041;SDS011;38052;45.944;13.624;2024-02-16T09:16:35;10.65;;;4.38;;
52041;SDS011;38052;45.944;13.624;2024-02-16T09:19:02;9.15;;;3.90;;
52041;SDS011;38052;45.944;13.624;2024-02-16T09:21:28;12.27;;;4.00;;
52041;SDS011;38052;45.944;13.624;2024-02-16T09:23:55;5.55;;;3.15;;
52041;SDS011;38052;45.944;13.624;2024-02-16T09:26:26;11.50;;;4.25;;
52041;SDS011;38052;45.944;13.624;2024-02-16T09:28:56;6.90;;;3.40;;
52041;SDS011;38052;45.944;13.624;2024-02-16T09:31:23;6.90;;;4.03;;
52041;SDS011;38052;45.944;13.624;2024-02-16T09:33:50;9.68;;;3.80;;
52041;SDS011;38052;45.944;13.624;2024-02-16T09:36:17;7.18;;;3.28;;
52041;SDS011;38052;45.944;13.624;2024-02-16T09:38:43;5.55;;;3.00;;
52041;SDS011;38052;45.944;13.624;2024-02-16T09:41:10;6.88;;;3.47;;
52041;SDS011;38052;45.944;13.624;2024-02-16T09:43:36;5.82;;;3.17;;
52041;SDS011;38052;45.944;13.624;2024-02-16T09:46:04;9.52;;;3.72;;
52041;SDS011;38052;45.944;13.624;2024-02-16T09:48:31;6.40;;;3.75;;
52041;SDS011;38052;45.944;13.624;2024-02-16T09:50:57;5.88;;;2.97;;
52041;SDS011;38052;45.944;13.624;2024-02-16T09:53:25;6.50;;;3.13;;
52041;SDS011;38052;45.944;13.624;2024-02-16T09:55:51;6.03;;;2.60;;
52041;SDS011;38052;45.944;13.624;2024-02-16T09:58:17;5.50;;;2.42;;
52041;SDS011;38052;45.944;13.624;2024-02-16T10:00:48;5.47;;;3.20;;
52041;SDS011;38052;45.944;13.624;2024-02-16T10:05:50;7.60;;;4.53;;
52041;SDS011;38052;45.944;13.624;2024-02-16T10:08:17;8.70;;;3.58;;
52041;SDS011;38052;45.944;13.624;2024-02-16T10:10:44;9.23;;;5.07;;
52041;SDS011;38052;45.944;13.624;2024-02-16T10:13:10;9.07;;;6.25;;
52041;SDS011;38052;45.944;13.624;2024-02-16T10:15:37;9.55;;;6.80;;
52041;SDS011;38052;45.944;13.624;2024-02-16T10:18:04;11.43;;;7.03;;
52041;SDS011;38052;45.944;13.624;2024-02-16T10:20:31;12.73;;;6.63;;
52041;SDS011;38052;45.944;13.624;2024-02-16T10:25:36;11.73;;;6.25;;
52041;SDS011;38052;45.944;13.624;2024-02-16T10:28:06;8.35;;;6.20;;
52041;SDS011;38052;45.944;13.624;2024-02-16T10:30:36;10.50;;;6.82;;
52041;SDS011;38052;45.944;13.624;2024-02-16T10:33:03;12.85;;;7.15;;
52041;SDS011;38052;45.944;13.624;2024-02-16T10:35:30;11.68;;;5.60;;
52041;SDS011;38052;45.944;13.624;2024-02-16T10:37:58;9.73;;;6.38;;
52041;SDS011;38052;45.944;13.624;2024-02-16T10:40:27;8.88;;;5.72;;
52041;SDS011;38052;45.944;13.624;2024-02-16T10:42:54;7.47;;;5.30;;
52041;SDS011;38052;45.944;13.624;2024-02-16T10:45:20;16.00;;;4.72;;
52041;SDS011;38052;45.944;13.624;2024-02-16T10:47:47;6.32;;;4.35;;
52041;SDS011;38052;45.944;13.624;2024-02-16T10:50:15;6.85;;;4.30;;
52041;SDS011;38052;45.944;13.624;2024-02-16T10:52:42;12.98;;;4.30;;
52041;SDS011;38052;45.944;13.624;2024-02-16T10:55:09;6.93;;;3.67;;
52041;SDS011;38052;45.944;13.624;2024-02-16T10:57:36;4.75;;;3.03;;
52041;SDS011;38052;45.944;13.624;2024-02-16T11:00:07;7.50;;;3.35;;
52041;SDS011;38052;45.944;13.624;2024-02-16T11:02:51;6.20;;;4.43;;
52041;SDS011;38052;45.944;13.624;2024-02-16T11:05:18;7.90;;;5.10;;
52041;SDS011;38052;45.944;13.624;2024-02-16T11:07:47;6.85;;;5.40;;
52041;SDS011;38052;45.944;13.624;2024-02-16T11:10:14;9.23;;;5.68;;
52041;SDS011;38052;45.944;13.624;2024-02-16T11:12:42;7.35;;;5.80;;
52041;SDS011;38052;45.944;13.624;2024-02-16T11:15:11;8.02;;;5.00;;
52041;SDS011;38052;45.944;13.624;2024-02-16T11:17:39;6.57;;;4.95;;
52041;SDS011;38052;45.944;13.624;2024-02-16T11:20:06;9.45;;;5.75;;
52041;SDS011;38052;45.944;13.624;2024-02-16T11:22:36;10.35;;;4.80;;
52041;SDS011;38052;45.944;13.624;2024-02-16T11:25:04;7.90;;;4.68;;
52041;SDS011;38052;45.944;13.624;2024-02-16T11:27:31;10.18;;;5.60;;
52041;SDS011;38052;45.944;13.624;2024-02-16T11:29:59;8.32;;;6.53;;
52041;SDS011;38052;45.944;13.624;2024-02-16T11:32:27;7.68;;;5.65;;
52041;SDS011;38052;45.944;13.624;2024-02-16T11:35:04;9.90;;;6.82;;
52041;SDS011;38052;45.944;13.624;2024-02-16T11:37:32;8.98;;;6.90;;
52041;SDS011;38052;45.944;13.624;2024-02-16T11:39:59;9.48;;;6.93;;
52041;SDS011;38052;45.944;13.624;2024-02-16T11:42:25;10.70;;;7.53;;
52041;SDS011;38052;45.944;13.624;2024-02-16T11:44:53;9.35;;;7.68;;
52041;SDS011;38052;45.944;13.624;2024-02-16T11:47:21;13.07;;;8.13;;
52041;SDS011;38052;45.944;13.624;2024-02-16T11:50:04;9.00;;;8.10;;
52041;SDS011;38052;45.944;13.624;2024-02-16T11:52:39;10.07;;;6.78;;
52041;SDS011;38052;45.944;13.624;2024-02-16T11:55:09;10.10;;;8.02;;
52041;SDS011;38052;45.944;13.624;2024-02-16T11:57:37;10.30;;;7.53;;
52041;SDS011;38052;45.944;13.624;2024-02-16T12:00:04;9.50;;;7.18;;
52041;SDS011;38052;45.944;13.624;2024-02-16T12:02:34;11.57;;;8.57;;
52041;SDS011;38052;45.944;13.624;2024-02-16T12:05:20;9.48;;;7.88;;
52041;SDS011;38052;45.944;13.624;2024-02-16T12:07:47;11.40;;;9.48;;
52041;SDS011;38052;45.944;13.624;2024-02-16T12:10:14;12.10;;;9.00;;
52041;SDS011;38052;45.944;13.624;2024-02-16T12:12:41;11.07;;;8.40;;
52041;SDS011;38052;45.944;13.624;2024-02-16T12:15:08;13.52;;;8.45;;
52041;SDS011;38052;45.944;13.624;2024-02-16T12:17:38;12.38;;;8.88;;
52041;SDS011;38052;45.944;13.624;2024-02-16T12:20:10;14.95;;;9.70;;
52041;SDS011;38052;45.944;13.624;2024-02-16T12:22:38;10.52;;;8.45;;
52041;SDS011;38052;45.944;13.624;2024-02-16T12:25:06;13.82;;;8.55;;
52041;SDS011;38052;45.944;13.624;2024-02-16T12:27:32;10.75;;;8.38;;
52041;SDS011;38052;45.944;13.624;2024-02-16T12:29:59;12.20;;;8.82;;
52041;SDS011;38052;45.944;13.624;2024-02-16T12:32:25;12.23;;;8.50;;
52041;SDS011;38052;45.944;13.624;2024-02-16T12:34:52;13.75;;;8.80;;
52041;SDS011;38052;45.944;13.624;2024-02-16T12:37:18;16.65;;;8.98;;
52041;SDS011;38052;45.944;13.624;2024-02-16T12:39:45;10.27;;;7.50;;
52041;SDS011;38052;45.944;13.624;2024-02-16T12:42:13;13.75;;;7.50;;
52041;SDS011;38052;45.944;13.624;2024-02-16T12:44:40;11.55;;;7.78;;
52041;SDS011;38052;45.944;13.624;2024-02-16T12:47:06;9.77;;;7.85;;
52041;SDS011;38052;45.944;13.624;2024-02-16T12:49:33;15.07;;;8.70;;
52041;SDS011;38052;45.944;13.624;2024-02-16T12:52:01;15.02;;;8.43;;
52041;SDS011;38052;45.944;13.624;2024-02-16T12:54:27;12.48;;;7.90;;
52041;SDS011;38052;45.944;13.624;2024-02-16T12:56:53;11.05;;;7.57;;
52041;SDS011;38052;45.944;13.624;2024-02-16T12:59:20;12.25;;;7.47;;
52041;SDS011;38052;45.944;13.624;2024-02-16T13:01:46;15.88;;;7.82;;
52041;SDS011;38052;45.944;13.624;2024-02-16T13:04:13;12.00;;;8.55;;
52041;SDS011;38052;45.944;13.624;2024-02-16T13:06:45;10.77;;;7.57;;
52041;SDS011;38052;45.944;13.624;2024-02-16T13:09:12;14.85;;;7.90;;
52041;SDS011;38052;45.944;13.624;2024-02-16T13:11:39;10.68;;;6.85;;
52041;SDS011;38052;45.944;13.624;2024-02-16T13:14:05;19.20;;;9.60;;
52041;SDS011;38052;45.944;13.624;2024-02-16T13:16:32;19.92;;;9.82;;
52041;SDS011;38052;45.944;13.624;2024-02-16T13:18:59;13.75;;;8.30;;
52041;SDS011;38052;45.944;13.624;2024-02-16T13:21:25;15.13;;;8.38;;
52041;SDS011;38052;45.944;13.624;2024-02-16T13:23:52;12.45;;;8.60;;
52041;SDS011;38052;45.944;13.624;2024-02-16T13:26:18;15.25;;;8.50;;
52041;SDS011;38052;45.944;13.624;2024-02-16T13:28:45;13.88;;;8.38;;
52041;SDS011;38052;45.944;13.624;2024-02-16T13:31:12;15.80;;;7.80;;
52041;SDS011;38052;45.944;13.624;2024-02-16T13:33:38;15.35;;;8.15;;
52041;SDS011;38052;45.944;13.624;2024-02-16T13:36:05;13.10;;;8.57;;
52041;SDS011;38052;45.944;13.624;2024-02-16T13:38:31;14.65;;;8.30;;
52041;SDS011;38052;45.944;13.624;2024-02-16T13:40:58;12.05;;;7.90;;
52041;SDS011;38052;45.944;13.624;2024-02-16T13:43:24;10.57;;;7.65;;
52041;SDS011;38052;45.944;13.624;2024-02-16T13:45:52;11.35;;;7.75;;
52041;SDS011;38052;45.944;13.624;2024-02-16T13:48:18;17.55;;;9.48;;
52041;SDS011;38052;45.944;13.624;2024-02-16T13:50:45;18.13;;;10.02;;
52041;SDS011;38052;45.944;13.624;2024-02-16T13:53:11;13.82;;;9.88;;
52041;SDS011;38052;45.944;13.624;2024-02-16T13:55:38;11.50;;;8.77;;
52041;SDS011;38052;45.944;13.624;2024-02-16T13:58:05;15.90;;;10.00;;
52041;SDS011;38052;45.944;13.624;2024-02-16T14:00:31;16.33;;;10.15;;
52041;SDS011;38052;45.944;13.624;2024-02-16T14:02:57;12.73;;;9.13;;
52041;SDS011;38052;45.944;13.624;2024-02-16T14:05:24;13.07;;;8.80;;
52041;SDS011;38052;45.944;13.624;2024-02-16T14:07:50;15.00;;;9.18;;
52041;SDS011;38052;45.944;13.624;2024-02-16T14:10:17;18.83;;;10.88;;
52041;SDS011;38052;45.944;13.624;2024-02-16T14:12:44;16.05;;;9.70;;
52041;SDS011;38052;45.944;13.624;2024-02-16T14:15:12;15.63;;;10.27;;
52041;SDS011;38052;45.944;13.624;2024-02-16T14:17:43;19.42;;;10.25;;
52041;SDS011;38052;45.944;13.624;2024-02-16T14:20:10;18.67;;;10.45;;
52041;SDS011;38052;45.944;13.624;2024-02-16T14:22:36;16.55;;;10.93;;
52041;SDS011;38052;45.944;13.624;2024-02-16T14:25:02;16.20;;;10.73;;